Time;durP1;ratioP1;P1;durP2;ratioP2;P2;SDS_P1;SDS_P2;PMS_P1;PMS_P2;Temp;Humidity;BMP_temperature;BMP_pressure;BME280_temperature;BME280_humidity;BME280_pressure;Samples;Min_cycle;Max_cycle;Signal;HPM_P1;HPM_P2
2023/03/31 00:02:35;;;;;;;11.95;7.55;;;;;;;-2.13;88.50;100329.22;10506431;28;20044;-81
2023/03/31 00:07:44;;;;;;;11.68;7.05;;;;;;;-2.20;88.62;100323.84;10509574;28;20055;-80
2023/03/31 00:12:50;;;;;;;12.23;7.50;;;;;;;-2.17;88.35;100328.81;10507861;28;20044;-82
2023/03/31 00:17:59;;;;;;;11.57;6.90;;;;;;;-2.14;88.68;100314.94;10521416;28;20043;-80
2023/03/31 00:23:01;;;;;;;10.25;6.95;;;;;;;-2.10;88.82;100314.53;10534834;28;20420;-82
2023/03/31 00:28:03;;;;;;;11.20;7.15;;;;;;;-2.01;89.01;100313.31;10497143;28;20049;-81
2023/03/31 00:33:05;;;;;;;10.55;7.05;;;;;;;-1.89;88.58;100298.22;10522705;28;20051;-80
2023/03/31 00:38:08;;;;;;;10.73;7.47;;;;;;;-1.89;88.42;100299.03;10533513;28;20044;-82
2023/03/31 00:43:23;;;;;;;12.35;6.80;;;;;;;-1.79;88.38;100293.22;10516208;28;20040;-81
2023/03/31 00:48:26;;;;;;;10.55;7.22;;;;;;;-1.76;88.48;100291.97;10523611;28;20419;-80
2023/03/31 00:53:33;;;;;;;11.65;7.47;;;;;;;-1.77;88.02;100284.94;10468095;28;20539;-82
2023/03/31 00:58:42;;;;;;;10.85;6.93;;;;;;;-1.78;87.98;100270.66;10476551;28;20041;-81
2023/03/31 01:04:01;;;;;;;11.57;7.55;;;;;;;-1.77;87.90;100274.19;10459473;28;20044;-81
2023/03/31 01:09:37;;;;;;;12.15;8.40;;;;;;;-1.89;88.06;100274.84;10445082;28;20083;-80
2023/03/31 01:14:42;;;;;;;12.95;8.20;;;;;;;-1.96;88.04;100262.41;10488158;28;20052;-81
2023/03/31 01:19:57;;;;;;;15.23;9.43;;;;;;;-1.91;88.19;100263.47;10478950;28;20044;-80
2023/03/31 01:25:41;;;;;;;12.48;7.88;;;;;;;-1.96;88.04;100265.09;10430140;28;20041;-82
2023/03/31 01:31:04;;;;;;;10.70;7.50;;;;;;;-1.96;88.75;100251.66;10385508;28;20053;-81
2023/03/31 01:36:28;;;;;;;15.27;7.88;;;;;;;-1.97;88.82;100250.00;10475255;28;20041;-81
2023/03/31 01:41:36;;;;;;;12.15;7.55;;;;;;;-1.91;88.24;100238.41;10439853;28;20045;-81
2023/03/31 01:46:52;;;;;;;13.82;9.02;;;;;;;-1.86;88.99;100234.06;10470791;28;20033;-80
2023/03/31 01:52:04;;;;;;;12.57;8.25;;;;;;;-1.92;88.75;100232.19;10532005;28;20064;-82
2023/03/31 01:57:11;;;;;;;15.10;9.18;;;;;;;-1.95;89.03;100237.19;10481789;28;20055;-81
2023/03/31 02:02:29;;;;;;;13.65;8.38;;;;;;;-1.93;89.12;100227.03;10533540;28;20135;-79
2023/03/31 02:07:40;;;;;;;;;;;;;;;-1.86;89.41;100230.56;10509709;28;20055;-82
2023/03/31 02:12:43;;;;;;;14.45;8.32;;;;;;;-1.80;89.08;100232.41;10501796;28;19915;-81
2023/03/31 02:17:53;;;;;;;16.63;9.30;;;;;;;-1.87;89.30;100228.91;10502620;28;20084;-81
2023/03/31 02:22:56;;;;;;;15.68;9.20;;;;;;;-1.93;89.08;100219.81;10546672;28;20055;-81
2023/03/31 02:28:08;;;;;;;17.73;9.82;;;;;;;-1.95;89.35;100215.66;10521400;28;20060;-79
2023/03/31 02:33:10;;;;;;;16.65;9.07;;;;;;;-1.90;89.60;100210.50;10480848;28;20047;-81
2023/03/31 02:38:12;;;;;;;15.57;9.80;;;;;;;-1.93;89.48;100213.59;10525730;28;20048;-81
2023/03/31 02:43:15;;;;;;;15.00;9.32;;;;;;;-2.01;89.55;100211.16;10496360;28;20064;-82
2023/03/31 02:48:24;;;;;;;16.90;9.50;;;;;;;-2.04;89.48;100200.81;10507312;28;20048;-82
2023/03/31 02:53:52;;;;;;;18.33;9.43;;;;;;;-2.03;89.81;100197.91;10543496;28;20499;-81
2023/03/31 02:59:15;;;;;;;17.88;10.50;;;;;;;-2.07;89.93;100202.06;10530130;28;20074;-81
2023/03/31 03:04:40;;;;;;;18.85;10.07;;;;;;;-2.14;89.73;100196.69;10510689;28;20059;-81
2023/03/31 03:10:02;;;;;;;18.13;10.02;;;;;;;-2.08;90.32;100202.25;10513421;28;20040;-81
2023/03/31 03:15:17;;;;;;;21.95;11.20;;;;;;;-2.04;90.18;100200.81;10478968;28;20051;-82
2023/03/31 03:20:22;;;;;;;18.90;10.48;;;;;;;-1.95;90.21;100199.53;10532523;28;20071;-81
2023/03/31 03:25:25;;;;;;;21.13;10.77;;;;;;;-1.98;90.48;100190.03;10509519;28;20047;-79
2023/03/31 03:30:27;;;;;;;17.55;10.05;;;;;;;-1.93;89.77;100178.63;10505544;28;20051;-81
2023/03/31 03:35:29;;;;;;;18.83;10.38;;;;;;;-1.88;89.70;100179.69;10521352;28;20523;-81
2023/03/31 03:40:31;;;;;;;18.88;10.35;;;;;;;-1.89;89.71;100177.22;10532187;28;20070;-83
2023/03/31 03:45:33;;;;;;;18.95;10.48;;;;;;;-1.84;90.10;100163.94;10522767;28;20052;-82
2023/03/31 03:50:40;;;;;;;20.60;10.73;;;;;;;-1.70;89.55;100170.09;10515904;28;20044;-82
2023/03/31 03:55:42;;;;;;;18.20;10.77;;;;;;;-1.67;89.59;100170.50;10501949;28;20044;-83
2023/03/31 04:00:45;;;;;;;17.70;10.35;;;;;;;-1.73;89.38;100175.91;10512197;28;20397;-82
2023/03/31 04:05:48;;;;;;;17.77;9.82;;;;;;;-1.76;89.29;100169.06;10533051;28;20040;-80
2023/03/31 04:10:50;;;;;;;22.85;11.02;;;;;;;-1.76;89.00;100166.38;10524507;28;20040;-81
2023/03/31 04:15:55;;;;;;;21.40;11.98;;;;;;;-1.73;89.16;100160.59;10488081;28;20416;-81
2023/03/31 04:21:03;;;;;;;20.63;11.52;;;;;;;-1.70;88.93;100167.41;10445613;28;20068;-82
2023/03/31 04:26:07;;;;;;;;;;;;;;;-1.70;89.05;100160.19;10492714;28;20052;-82
2023/03/31 04:31:14;;;;;;;20.13;11.20;;;;;;;-1.70;88.92;100160.19;10475578;28;19916;-81
2023/03/31 04:36:16;;;;;;;16.92;10.45;;;;;;;-1.74;88.38;100156.22;10498477;28;20051;-80
2023/03/31 04:41:19;;;;;;;21.35;11.48;;;;;;;-1.75;89.01;100151.91;10506175;28;20041;-81
2023/03/31 04:46:21;;;;;;;20.23;11.32;;;;;;;-1.73;88.80;100154.41;10525693;28;20040;-80
2023/03/31 04:51:28;;;;;;;20.45;11.38;;;;;;;-1.74;88.58;100145.47;10535253;28;20082;-81
2023/03/31 04:56:34;;;;;;;21.55;10.45;;;;;;;-1.62;88.58;100143.78;10490339;28;20036;-82
2023/03/31 05:01:44;;;;;;;22.02;12.63;;;;;;;-1.58;88.33;100144.16;10524552;28;20046;-82
2023/03/31 05:06:50;;;;;;;23.73;11.82;;;;;;;-1.59;88.75;100148.72;10474777;28;20041;-82
2023/03/31 05:11:53;;;;;;;22.15;11.77;;;;;;;-1.49;88.67;100140.22;10529075;28;20072;-81
2023/03/31 05:16:56;;;;;;;22.08;11.95;;;;;;;-1.44;88.78;100136.88;10506224;28;20036;-81
2023/03/31 05:22:02;;;;;;;24.93;12.50;;;;;;;-1.44;88.08;100118.03;10526207;28;20039;-82
2023/03/31 05:27:28;;;;;;;23.38;11.55;;;;;;;-1.50;87.74;100130.50;10479145;28;20056;-82
2023/03/31 05:33:13;;;;;;;20.92;11.15;;;;;;;-1.40;87.63;100121.94;10500172;28;20055;-83
2023/03/31 05:38:43;;;;;;;25.13;12.45;;;;;;;-1.26;87.68;100127.03;10518555;28;20044;-82
2023/03/31 05:43:46;;;;;;;22.45;12.25;;;;;;;-1.10;87.15;100116.78;10514668;28;20048;-82
2023/03/31 05:49:07;;;;;;;22.17;12.30;;;;;;;-0.92;87.04;100124.94;10516179;28;20048;-82
2023/03/31 05:54:10;;;;;;;24.33;12.25;;;;;;;-0.80;86.31;100116.97;10517812;28;20059;-82
2023/03/31 05:59:12;;;;;;;21.60;12.15;;;;;;;-0.72;86.20;100109.44;10557222;28;20043;-82
2023/03/31 06:05:09;;;;;;;22.40;12.85;;;;;;;-0.57;84.98;100111.78;10556799;28;20162;-83
2023/03/31 06:10:25;;;;;;;21.93;12.30;;;;;;;-0.54;84.16;100114.03;10549690;28;20042;-82
2023/03/31 06:15:31;;;;;;;25.20;12.43;;;;;;;-0.38;84.01;100113.47;10554914;28;20044;-82
2023/03/31 06:20:34;;;;;;;22.08;11.13;;;;;;;-0.35;83.68;100102.28;10540470;28;20043;-82
2023/03/31 06:25:39;;;;;;;22.45;12.07;;;;;;;-0.24;83.10;100105.25;10549099;28;20028;-81
2023/03/31 06:30:45;;;;;;;23.63;12.32;;;;;;;-0.03;83.05;100104.81;10552274;28;20522;-82
2023/03/31 06:35:49;;;;;;;20.80;11.57;;;;;;;0.19;82.83;100094.41;10536380;28;20055;-81
2023/03/31 06:40:51;;;;;;;20.15;11.93;;;;;;;0.42;82.00;100088.28;10456644;28;20052;-81
2023/03/31 06:45:54;;;;;;;20.17;11.45;;;;;;;0.45;80.79;100088.66;10455901;28;20048;-82
2023/03/31 06:50:59;;;;;;;24.35;12.57;;;;;;;0.45;80.11;100082.44;10553660;28;20052;-82
2023/03/31 06:56:02;;;;;;;24.33;13.13;;;;;;;0.45;79.87;100082.44;10552477;28;20040;-83
2023/03/31 07:01:10;;;;;;;24.13;13.05;;;;;;;0.48;80.00;100088.19;10572801;28;20043;-82
2023/03/31 07:06:16;;;;;;;21.08;10.65;;;;;;;0.40;80.02;100079.59;10543759;28;20506;-81
2023/03/31 07:11:18;;;;;;;19.95;11.60;;;;;;;0.48;79.34;100071.16;10477993;28;20051;-82
2023/03/31 07:16:45;;;;;;;21.67;11.30;;;;;;;0.81;78.68;100071.50;10476913;28;20045;-81
2023/03/31 07:21:48;;;;;;;21.80;11.07;;;;;;;0.89;78.27;100068.50;10508565;28;20038;-82
2023/03/31 07:26:50;;;;;;;18.98;10.63;;;;;;;1.32;76.65;100070.06;10517599;28;20040;-83
2023/03/31 07:31:52;;;;;;;16.05;8.45;;;;;;;1.36;75.41;100063.13;10536561;28;20519;-81
2023/03/31 07:36:55;;;;;;;16.40;9.70;;;;;;;1.23;75.27;100068.78;10493971;28;20048;-82
2023/03/31 07:41:58;;;;;;;12.52;7.88;;;;;;;1.41;74.92;100065.13;10470016;28;20043;-82
2023/03/31 07:47:05;;;;;;;14.07;8.45;;;;;;;1.84;74.15;100062.03;10542933;28;20521;-83
2023/03/31 07:52:11;;;;;;;20.80;11.18;;;;;;;1.96;72.93;100054.72;10538006;28;20180;-83
2023/03/31 07:57:15;;;;;;;18.30;10.70;;;;;;;1.36;73.53;100055.00;10499871;28;20066;-83
2023/03/31 08:02:18;;;;;;;15.73;9.50;;;;;;;1.54;74.52;100053.25;10506451;28;20048;-82
2023/03/31 08:07:24;;;;;;;20.92;10.02;;;;;;;1.78;73.71;100054.88;10502476;28;20055;-82
2023/03/31 08:12:27;;;;;;;15.82;9.27;;;;;;;1.88;72.98;100046.97;10520359;28;20047;-81
2023/03/31 08:17:33;;;;;;;16.20;8.77;;;;;;;1.97;72.57;100042.84;10570699;28;20043;-83
2023/03/31 08:22:36;;;;;;;17.77;10.57;;;;;;;2.32;72.42;100044.59;10530042;28;20044;-82
2023/03/31 08:27:39;;;;;;;15.70;9.50;;;;;;;2.48;71.91;100046.53;10528677;28;20040;-81
2023/03/31 08:32:41;;;;;;;16.75;10.27;;;;;;;2.55;70.67;100051.78;10552341;28;20046;-82
2023/03/31 08:37:44;;;;;;;17.13;9.25;;;;;;;2.50;70.93;100046.28;10533453;28;20032;-82
2023/03/31 08:42:52;;;;;;;15.25;9.43;;;;;;;2.66;70.69;100043.63;10520407;28;20048;-81
2023/03/31 08:48:24;;;;;;;20.08;9.38;;;;;;;2.62;70.70;100038.94;10500575;28;20040;-80
2023/03/31 08:53:34;;;;;;;15.10;9.57;;;;;;;2.70;70.82;100039.34;10528785;28;20048;-83
2023/03/31 08:58:45;;;;;;;15.70;9.27;;;;;;;2.67;70.43;100039.03;10519778;28;20036;-82
2023/03/31 09:04:20;;;;;;;14.75;9.15;;;;;;;2.82;69.95;100041.19;10537559;28;20036;-81
2023/03/31 09:09:51;;;;;;;14.70;8.30;;;;;;;2.56;70.78;100050.72;10522818;28;20052;-81
2023/03/31 09:15:04;;;;;;;13.75;8.05;;;;;;;2.70;70.62;100046.66;10548809;28;20044;-82
2023/03/31 09:20:14;;;;;;;12.20;8.02;;;;;;;2.43;71.17;100041.03;10518031;28;20044;-82
2023/03/31 09:25:20;;;;;;;14.88;8.85;;;;;;;2.29;71.35;100039.69;10494220;28;20052;-80
2023/03/31 09:30:31;;;;;;;11.63;7.47;;;;;;;2.30;71.90;100034.03;10497830;28;20040;-81
2023/03/31 09:35:33;;;;;;;14.07;8.02;;;;;;;2.42;71.94;100037.47;10534236;28;20036;-80
2023/03/31 09:40:35;;;;;;;11.30;6.50;;;;;;;2.56;71.81;100034.47;10516230;28;20048;-81
2023/03/31 09:45:37;;;;;;;10.48;6.85;;;;;;;2.69;71.43;100031.47;10516911;28;20037;-79
2023/03/31 09:50:52;;;;;;;10.20;6.50;;;;;;;2.74;71.15;100026.13;10534714;28;20420;-80
2023/03/31 09:56:00;;;;;;;12.57;6.80;;;;;;;2.68;71.08;100027.13;10516698;28;20051;-81
2023/03/31 10:01:05;;;;;;;10.23;6.40;;;;;;;2.65;71.63;100022.19;10534350;28;20067;-82
2023/03/31 10:06:09;;;;;;;12.02;7.15;;;;;;;2.88;70.92;100030.16;10500995;28;20040;-79
2023/03/31 10:11:11;;;;;;;9.65;6.63;;;;;;;2.92;70.78;100019.66;10518944;28;20046;-84
2023/03/31 10:16:34;;;;;;;8.82;6.72;;;;;;;3.05;70.86;100022.03;10498890;28;20442;-82
2023/03/31 10:21:40;;;;;;;16.58;7.57;;;;;;;3.52;69.50;100021.66;10481377;28;20037;-81
2023/03/31 10:26:42;;;;;;;15.25;7.97;;;;;;;3.60;68.94;100013.91;10539219;28;20450;-80
2023/03/31 10:31:45;;;;;;;14.02;7.60;;;;;;;3.31;69.40;100015.13;10530754;28;20044;-80
2023/03/31 10:36:50;;;;;;;26.27;8.98;;;;;;;3.27;70.13;100009.38;10510184;28;20048;-80
2023/03/31 10:41:53;;;;;;;18.90;7.78;;;;;;;3.01;70.45;100016.31;10514018;28;20051;-79
2023/03/31 10:47:03;;;;;;;13.23;7.38;;;;;;;3.07;70.83;100014.47;10514434;28;20511;-80
2023/03/31 10:52:23;;;;;;;14.95;7.65;;;;;;;2.98;70.39;100005.97;10514314;28;20045;-79
2023/03/31 10:58:05;;;;;;;14.65;7.80;;;;;;;2.78;71.09;99999.38;10529383;28;20043;-79
2023/03/31 11:03:21;;;;;;;13.85;8.60;;;;;;;2.92;71.33;99997.97;10478812;28;20460;-79
2023/03/31 11:08:48;;;;;;;16.85;9.15;;;;;;;2.77;71.44;99986.88;10488236;28;20296;-79
2023/03/31 11:14:01;;;;;;;13.82;8.70;;;;;;;2.94;71.58;99976.88;10488941;28;20484;-79
2023/03/31 11:19:29;;;;;;;12.98;8.10;;;;;;;2.94;71.26;99976.88;10471138;28;20041;-79
2023/03/31 11:25:04;;;;;;;12.68;8.13;;;;;;;3.11;71.13;99982.28;10450759;28;20485;-79
2023/03/31 11:30:19;;;;;;;13.25;8.70;;;;;;;3.03;70.67;99972.69;10445694;28;20057;-79
2023/03/31 11:36:00;;;;;;;11.20;7.22;;;;;;;2.90;70.77;99968.41;10488883;28;20460;-79
2023/03/31 11:41:12;;;;;;;13.32;7.25;;;;;;;2.80;72.00;99965.56;10483417;28;20059;-79
2023/03/31 11:46:19;;;;;;;11.05;7.03;;;;;;;2.99;71.51;99963.41;10487935;28;20049;-79
2023/03/31 11:51:34;;;;;;;10.97;7.27;;;;;;;2.95;72.04;99964.97;10523274;28;20472;-80
2023/03/31 11:56:38;;;;;;;9.77;6.13;;;;;;;2.81;72.49;99958.25;10499306;28;20047;-79
2023/03/31 12:01:47;;;;;;;8.73;5.18;;;;;;;3.12;71.49;99960.34;10552531;28;20039;-80
2023/03/31 12:06:50;;;;;;;25.70;7.70;;;;;;;2.97;71.86;99965.56;10551886;28;20055;-80
2023/03/31 12:12:20;;;;;;;9.77;6.25;;;;;;;2.76;72.46;99974.41;10541983;28;20044;-80
2023/03/31 12:17:25;;;;;;;8.20;5.38;;;;;;;2.72;72.87;99963.25;10512741;28;20531;-82
2023/03/31 12:22:42;;;;;;;8.38;6.00;;;;;;;2.62;73.04;99972.03;10480062;28;20051;-83
2023/03/31 12:27:53;;;;;;;5.80;4.50;;;;;;;2.58;72.81;99984.41;10511708;28;20043;-82
2023/03/31 12:33:20;;;;;;;12.75;5.40;;;;;;;2.57;72.88;99966.53;10499411;28;20491;-84
2023/03/31 12:38:33;;;;;;;10.57;5.93;;;;;;;2.74;72.63;99971.94;10513121;28;20409;-79
2023/03/31 12:44:00;;;;;;;8.05;5.43;;;;;;;2.70;72.75;99968.91;10497358;28;20247;-81
2023/03/31 12:49:05;;;;;;;9.88;6.15;;;;;;;2.64;72.73;99966.38;10499837;28;20040;-81
2023/03/31 12:54:30;;;;;;;9.35;6.18;;;;;;;2.70;73.29;99966.22;10520613;28;20056;-82
2023/03/31 12:59:36;;;;;;;9.68;6.28;;;;;;;2.69;73.32;99952.91;10512424;28;20047;-79
2023/03/31 13:04:38;;;;;;;7.35;5.30;;;;;;;2.57;73.65;99952.97;10529722;28;20045;-79
2023/03/31 13:09:51;;;;;;;8.85;5.72;;;;;;;2.35;74.87;99960.19;10544271;28;20048;-78
2023/03/31 13:14:58;;;;;;;10.27;6.43;;;;;;;2.21;75.46;99954.25;10507048;28;20139;-77
2023/03/31 13:20:36;;;;;;;8.32;5.97;;;;;;;2.21;76.03;99956.94;10527439;28;20174;-79
2023/03/31 13:25:40;;;;;;;12.25;6.63;;;;;;;2.21;76.25;99951.53;10526855;28;20136;-79
2023/03/31 13:30:59;;;;;;;8.35;6.55;;;;;;;2.02;76.95;99956.34;10474788;28;20040;-79
2023/03/31 13:36:16;;;;;;;10.05;6.07;;;;;;;1.90;77.28;99944.72;10485272;28;20041;-79
2023/03/31 13:41:30;;;;;;;9.90;6.50;;;;;;;1.94;77.56;99947.81;10485654;28;20041;-77
2023/03/31 13:46:45;;;;;;;9.75;6.07;;;;;;;1.83;78.45;99944.06;10467309;28;20052;-79
2023/03/31 13:52:02;;;;;;;8.82;5.95;;;;;;;1.72;78.29;99951.16;10485516;28;20055;-79
2023/03/31 13:57:26;;;;;;;9.85;6.70;;;;;;;1.66;78.85;99946.72;10536670;28;20059;-79
2023/03/31 14:02:52;;;;;;;10.32;6.70;;;;;;;1.57;79.32;99950.03;10547697;28;20043;-85
2023/03/31 14:08:02;;;;;;;14.85;6.00;;;;;;;1.58;78.81;99946.28;10507622;28;20052;-79
2023/03/31 14:13:07;;;;;;;16.75;6.00;;;;;;;1.57;79.06;99937.34;10526615;28;20040;-83
2023/03/31 14:18:14;;;;;;;8.18;5.65;;;;;;;1.56;79.30;99949.19;10535319;28;20049;-79
2023/03/31 14:23:35;;;;;;;11.83;5.67;;;;;;;1.46;79.88;99947.13;10532505;28;20041;-82
2023/03/31 14:28:51;;;;;;;9.90;5.10;;;;;;;1.35;80.17;99953.34;10515000;28;20041;-78
2023/03/31 14:34:18;;;;;;;7.30;5.05;;;;;;;1.07;80.45;99951.41;10536650;28;20055;-82
2023/03/31 14:39:22;;;;;;;15.30;5.37;;;;;;;1.07;81.05;99956.00;10530181;28;20032;-78
2023/03/31 14:44:24;;;;;;;7.53;5.10;;;;;;;0.88;81.15;99958.00;10506239;28;20040;-79
2023/03/31 14:49:37;;;;;;;6.60;4.70;;;;;;;0.75;81.71;99959.03;10514909;28;20415;-78
2023/03/31 14:54:40;;;;;;;9.35;4.60;;;;;;;0.64;83.03;99945.50;10528891;28;20040;-78
2023/03/31 14:59:43;;;;;;;7.55;5.65;;;;;;;0.49;83.51;99952.16;10514623;28;20044;-78
2023/03/31 15:04:47;;;;;;;7.20;4.70;;;;;;;0.43;84.58;99955.00;10518534;28;20047;-78
2023/03/31 15:09:50;;;;;;;7.82;5.07;;;;;;;0.39;84.54;99949.22;10499317;28;20036;-78
2023/03/31 15:14:59;;;;;;;8.05;5.45;;;;;;;0.25;85.30;99943.22;10500316;28;20040;-81
2023/03/31 15:20:26;;;;;;;10.27;4.45;;;;;;;0.33;85.23;99939.34;10484775;28;20033;-80
2023/03/31 15:25:40;;;;;;;13.30;5.63;;;;;;;0.46;84.54;99943.72;10532731;28;20058;-81
2023/03/31 15:30:49;;;;;;;8.20;4.90;;;;;;;0.37;84.16;99939.72;10476726;28;20041;-83
2023/03/31 15:36:03;;;;;;;9.55;4.97;;;;;;;0.22;84.59;99938.28;10500327;28;20561;-84
2023/03/31 15:41:14;;;;;;;7.25;4.72;;;;;;;0.20;84.55;99942.28;10500117;28;20045;-82
2023/03/31 15:46:25;;;;;;;9.13;4.93;;;;;;;0.02;84.89;99923.44;10497957;28;20059;-82
2023/03/31 15:51:35;;;;;;;8.25;5.63;;;;;;;-0.13;85.44;99930.06;10466489;28;20052;-83
2023/03/31 15:56:43;;;;;;;8.85;5.05;;;;;;;-0.14;85.87;99924.91;10517302;28;20033;-80
2023/03/31 16:01:49;;;;;;;11.73;5.93;;;;;;;-0.16;86.33;99935.94;10488401;28;20508;-83
2023/03/31 16:07:06;;;;;;;8.55;5.20;;;;;;;-0.27;86.65;99927.78;10451092;28;20123;-82
2023/03/31 16:12:20;;;;;;;7.30;5.20;;;;;;;-0.31;86.86;99928.25;10489285;28;20411;-83
2023/03/31 16:17:37;;;;;;;9.90;5.85;;;;;;;-0.43;86.80;99930.06;10464894;28;20040;-85
2023/03/31 16:22:43;;;;;;;10.85;5.70;;;;;;;-0.41;87.06;99944.13;10472040;28;20048;-81
2023/03/31 16:27:54;;;;;;;11.40;6.10;;;;;;;-0.47;87.16;99955.81;10515956;28;20143;-82
2023/03/31 16:33:02;;;;;;;16.88;7.65;;;;;;;-0.43;87.79;99959.69;10501026;28;20036;-84
2023/03/31 16:38:06;;;;;;;9.15;5.68;;;;;;;-0.45;87.68;99956.41;10529102;28;20048;-80
2023/03/31 16:43:21;;;;;;;9.15;5.68;;;;;;;-0.60;87.90;99961.34;10510298;28;20040;-85
2023/03/31 16:48:26;;;;;;;7.65;5.90;;;;;;;-0.69;88.07;99962.72;10522195;28;20044;-82
2023/03/31 16:53:30;;;;;;;9.38;6.57;;;;;;;-0.71;88.53;99956.69;10579126;28;20028;-83
2023/03/31 16:58:33;;;;;;;8.63;5.60;;;;;;;-0.61;89.27;99962.41;10556856;28;20087;-82
2023/03/31 17:03:46;;;;;;;10.52;6.53;;;;;;;-0.50;89.63;99950.06;10476796;28;20529;-85
2023/03/31 17:08:51;;;;;;;9.50;6.10;;;;;;;-0.65;89.94;99953.13;10514253;28;20123;-81
2023/03/31 17:13:55;;;;;;;8.27;5.65;;;;;;;-0.75;90.05;99960.91;10523024;28;20046;-83
2023/03/31 17:18:57;;;;;;;9.63;6.82;;;;;;;-0.87;89.93;99966.19;10518578;28;20044;-83
2023/03/31 17:23:59;;;;;;;7.70;5.95;;;;;;;-1.11;90.64;99970.56;10518385;28;20045;-84
2023/03/31 17:29:02;;;;;;;8.30;6.15;;;;;;;-1.14;90.88;99979.09;10510271;28;20036;-81
2023/03/31 17:34:04;;;;;;;8.32;5.70;;;;;;;-1.18;91.36;99977.91;10492118;28;20056;-80
2023/03/31 17:39:06;;;;;;;7.97;5.65;;;;;;;-1.19;91.61;99987.03;10490238;28;20041;-85
2023/03/31 17:44:11;;;;;;;8.13;6.00;;;;;;;-1.12;91.94;99987.78;10503378;28;20258;-87
2023/03/31 17:49:38;;;;;;;8.55;5.75;;;;;;;-1.22;91.74;99988.25;10541240;28;20036;-83
2023/03/31 17:54:41;;;;;;;10.30;6.93;;;;;;;-1.22;92.57;99990.13;10502671;28;20029;-80
2023/03/31 17:59:45;;;;;;;10.05;5.88;;;;;;;-1.29;92.60;99984.81;10531088;28;20041;-79
2023/03/31 18:04:47;;;;;;;8.80;5.85;;;;;;;-1.38;92.74;99980.78;10515368;28;20043;-83
2023/03/31 18:09:49;;;;;;;8.27;5.70;;;;;;;-1.23;93.23;99989.31;10553288;28;20048;-83
2023/03/31 18:14:52;;;;;;;9.43;5.72;;;;;;;-1.34;93.34;99992.72;10510132;28;20040;-83
2023/03/31 18:19:55;;;;;;;10.60;7.70;;;;;;;-1.43;93.59;99988.66;10503240;28;20407;-83
2023/03/31 18:24:57;;;;;;;9.88;6.22;;;;;;;-1.38;94.25;99971.88;10542961;28;20415;-82
2023/03/31 18:29:59;;;;;;;9.88;6.07;;;;;;;-1.43;94.71;99964.44;10500268;28;20028;-82
2023/03/31 18:35:01;;;;;;;7.78;5.80;;;;;;;-1.47;94.25;99973.16;10464788;28;20494;-78
2023/03/31 18:40:04;;;;;;;8.32;6.53;;;;;;;-1.32;94.57;99973.66;10519007;28;20543;-81
2023/03/31 18:45:07;;;;;;;8.32;6.07;;;;;;;-1.38;94.53;99975.38;10516534;28;20048;-81
2023/03/31 18:50:10;;;;;;;6.88;5.07;;;;;;;-1.45;94.26;99979.97;10511233;28;20060;-81
2023/03/31 18:55:12;;;;;;;7.00;4.82;;;;;;;-1.51;94.22;99983.56;10489753;28;20044;-82
2023/03/31 19:00:16;;;;;;;6.55;5.43;;;;;;;-1.61;94.30;99985.88;10471953;28;20396;-81
2023/03/31 19:05:18;;;;;;;5.68;4.32;;;;;;;-1.64;93.98;99980.94;10491844;28;20041;-80
2023/03/31 19:10:20;;;;;;;5.75;4.13;;;;;;;-1.60;94.25;99988.34;10482767;28;20405;-82
2023/03/31 19:15:24;;;;;;;6.70;4.97;;;;;;;-1.61;94.25;99984.03;10495922;28;20166;-82
2023/03/31 19:20:26;;;;;;;7.05;5.78;;;;;;;-1.68;94.02;99990.50;10467329;28;20040;-79
2023/03/31 19:25:29;;;;;;;7.82;5.35;;;;;;;-1.62;94.29;99979.69;10484358;28;20040;-81
2023/03/31 19:30:32;;;;;;;9.25;7.28;;;;;;;-1.69;93.97;99987.00;10483182;28;20051;-80
2023/03/31 19:35:41;;;;;;;7.20;5.25;;;;;;;-1.82;94.07;99985.19;10453963;28;20041;-82
2023/03/31 19:40:44;;;;;;;8.48;6.40;;;;;;;-1.78;94.79;99974.00;10480299;28;20064;-81
2023/03/31 19:45:47;;;;;;;7.53;6.03;;;;;;;-1.82;94.81;99979.00;10476749;28;20048;-80
2023/03/31 19:50:51;;;;;;;7.85;5.80;;;;;;;-1.76;95.09;99970.06;10481013;28;20053;-81
2023/03/31 19:55:58;;;;;;;10.30;5.75;;;;;;;-1.64;95.30;99948.66;10493580;28;20047;-82
2023/03/31 20:01:01;;;;;;;8.75;5.25;;;;;;;-1.56;95.04;99951.94;10533873;28;20510;-82
2023/03/31 20:06:06;;;;;;;10.25;6.22;;;;;;;-1.66;94.93;99962.34;10497295;28;20554;-82
2023/03/31 20:11:12;;;;;;;9.82;6.07;;;;;;;-1.73;95.10;99964.28;10515475;28;20049;-81
2023/03/31 20:16:17;;;;;;;7.22;5.45;;;;;;;-1.67;95.22;99970.63;10502570;28;20048;-81
2023/03/31 20:21:23;;;;;;;8.35;5.60;;;;;;;-1.70;95.11;99960.31;10500236;28;20050;-84
2023/03/31 20:26:31;;;;;;;8.90;5.93;;;;;;;-1.76;95.23;99962.00;10498469;28;20389;-83
2023/03/31 20:31:38;;;;;;;8.38;5.72;;;;;;;-1.71;95.50;99978.31;10522080;28;20032;-83
2023/03/31 20:36:42;;;;;;;6.43;5.20;;;;;;;-1.67;95.69;99967.94;10524753;28;20053;-85
2023/03/31 20:41:44;;;;;;;5.43;4.40;;;;;;;-1.62;95.73;99974.31;10490622;28;20036;-82
2023/03/31 20:46:47;;;;;;;6.28;4.90;;;;;;;-1.61;95.62;99959.81;10518485;28;20040;-84
2023/03/31 20:51:49;;;;;;;6.18;4.32;;;;;;;-1.70;95.50;99958.44;10498583;28;20045;-81
2023/03/31 20:56:52;;;;;;;5.00;4.03;;;;;;;-1.66;95.40;99959.66;10485867;28;20047;-85
2023/03/31 21:01:55;;;;;;;6.22;4.80;;;;;;;-1.67;94.87;99966.06;10446824;28;20040;-81
2023/03/31 21:06:58;;;;;;;5.50;4.93;;;;;;;-1.68;94.61;99966.28;10482953;28;20041;-82
2023/03/31 21:12:01;;;;;;;7.60;5.35;;;;;;;-1.72;94.91;99965.91;10449645;28;20045;-82
2023/03/31 21:17:04;;;;;;;6.65;5.13;;;;;;;-1.83;94.86;99966.59;10466764;28;20040;-81
2023/03/31 21:22:07;;;;;;;6.18;4.18;;;;;;;-1.80;94.66;99963.47;10483921;28;20040;-81
2023/03/31 21:27:10;;;;;;;5.95;4.10;;;;;;;-1.74;95.49;99959.91;10482932;28;20056;-81
2023/03/31 21:32:14;;;;;;;6.80;5.10;;;;;;;-1.68;95.31;99959.06;10436587;28;20041;-80
2023/03/31 21:37:16;;;;;;;6.38;5.22;;;;;;;-1.83;95.12;99962.03;10447598;28;20511;-80
2023/03/31 21:42:18;;;;;;;7.30;4.40;;;;;;;-1.83;95.25;99958.53;10465663;28;20044;-81
2023/03/31 21:47:21;;;;;;;5.53;4.30;;;;;;;-1.86;95.68;99953.59;10486505;28;20051;-83
2023/03/31 21:52:24;;;;;;;5.82;3.88;;;;;;;-1.81;95.55;99956.44;10497675;28;20056;-83
2023/03/31 21:57:26;;;;;;;6.40;3.67;;;;;;;-1.74;95.15;99959.91;10497693;28;20056;-80
2023/03/31 22:02:30;;;;;;;5.35;3.45;;;;;;;-1.69;95.92;99943.13;10489920;28;20408;-78
2023/03/31 22:07:33;;;;;;;5.85;5.15;;;;;;;-1.60;95.74;99950.69;10517678;28;20043;-79
2023/03/31 22:12:35;;;;;;;7.53;4.05;;;;;;;-1.69;95.61;99949.34;10527230;28;20044;-79
2023/03/31 22:17:37;;;;;;;5.80;3.92;;;;;;;-1.70;95.89;99946.88;10513964;28;20037;-79
2023/03/31 22:22:40;;;;;;;6.60;4.15;;;;;;;-1.67;95.46;99951.81;10532672;28;20037;-79
2023/03/31 22:27:43;;;;;;;3.40;2.55;;;;;;;-1.70;95.83;99945.00;10525670;28;20046;-79
2023/03/31 22:32:46;;;;;;;3.65;2.45;;;;;;;-1.61;95.97;99940.16;10523285;28;20047;-78
2023/03/31 22:37:49;;;;;;;3.35;1.85;;;;;;;-1.68;95.83;99939.41;10491473;28;20044;-78
2023/03/31 22:42:53;;;;;;;6.18;4.57;;;;;;;-1.75;95.64;99941.28;10514220;28;20123;-79
2023/03/31 22:47:56;;;;;;;5.05;3.85;;;;;;;-1.82;96.07;99946.72;10496846;28;20075;-78
2023/03/31 22:52:58;;;;;;;5.38;3.35;;;;;;;-1.76;96.27;99940.47;10489019;28;20052;-78
2023/03/31 22:58:01;;;;;;;4.65;3.15;;;;;;;-1.72;96.69;99940.88;10508081;28;20400;-79
2023/03/31 23:03:03;;;;;;;4.10;3.15;;;;;;;-1.73;96.36;99936.56;10519224;28;20044;-79
2023/03/31 23:08:06;;;;;;;5.82;3.80;;;;;;;-1.70;96.37;99931.56;10516009;28;20052;-78
2023/03/31 23:13:08;;;;;;;1.40;0.95;;;;;;;-1.69;96.11;99919.75;10509328;28;20048;-78
2023/03/31 23:18:10;;;;;;;4.03;3.63;;;;;;;-1.67;96.38;99917.66;10517881;28;20033;-78
2023/03/31 23:23:12;;;;;;;4.32;2.72;;;;;;;-1.78;96.42;99917.53;10488108;28;20059;-80
2023/03/31 23:28:15;;;;;;;3.92;2.90;;;;;;;-1.82;96.21;99928.72;10515976;28;20040;-79
2023/03/31 23:33:17;;;;;;;4.35;3.00;;;;;;;-1.74;96.40;99927.63;10488952;28;20040;-78
2023/03/31 23:38:20;;;;;;;5.25;3.20;;;;;;;-1.80;96.68;99923.13;10517990;28;20041;-78
2023/03/31 23:43:22;;;;;;;5.53;3.13;;;;;;;-1.85;96.63;99926.47;10518510;28;20051;-79